sensor_id;sensor_type;location;lat;lon;timestamp;P1;durP1;ratioP1;P2;durP2;ratioP2
48034;SDS011;33812;46.480;6.834;2023-02-28T00:01:34;11.02;;;2.55;;
48034;SDS011;33812;46.480;6.834;2023-02-28T00:05:36;9.40;;;1.83;;
48034;SDS011;33812;46.480;6.834;2023-02-28T00:09:37;11.20;;;2.55;;
48034;SDS011;33812;46.480;6.834;2023-02-28T00:13:40;9.77;;;2.38;;
48034;SDS011;33812;46.480;6.834;2023-02-28T00:17:46;8.75;;;1.92;;
48034;SDS011;33812;46.480;6.834;2023-02-28T00:21:47;6.90;;;1.77;;
48034;SDS011;33812;46.480;6.834;2023-02-28T00:25:49;17.08;;;3.40;;
48034;SDS011;33812;46.480;6.834;2023-02-28T00:29:51;7.32;;;2.00;;
48034;SDS011;33812;46.480;6.834;2023-02-28T00:33:57;15.50;;;3.08;;
48034;SDS011;33812;46.480;6.834;2023-02-28T00:38:00;10.48;;;2.10;;
48034;SDS011;33812;46.480;6.834;2023-02-28T00:42:03;8.35;;;2.15;;
48034;SDS011;33812;46.480;6.834;2023-02-28T00:46:05;9.88;;;2.35;;
48034;SDS011;33812;46.480;6.834;2023-02-28T00:50:09;6.38;;;1.60;;
48034;SDS011;33812;46.480;6.834;2023-02-28T00:54:11;8.50;;;2.00;;
48034;SDS011;33812;46.480;6.834;2023-02-28T00:58:13;7.38;;;1.80;;
48034;SDS011;33812;46.480;6.834;2023-02-28T01:02:15;7.57;;;2.03;;
48034;SDS011;33812;46.480;6.834;2023-02-28T01:06:19;9.02;;;2.33;;
48034;SDS011;33812;46.480;6.834;2023-02-28T01:10:23;7.75;;;1.77;;
48034;SDS011;33812;46.480;6.834;2023-02-28T01:14:26;8.57;;;2.05;;
48034;SDS011;33812;46.480;6.834;2023-02-28T01:18:27;8.93;;;2.00;;
48034;SDS011;33812;46.480;6.834;2023-02-28T01:22:31;7.38;;;1.80;;
48034;SDS011;33812;46.480;6.834;2023-02-28T01:26:32;8.77;;;2.05;;
48034;SDS011;33812;46.480;6.834;2023-02-28T01:30:34;8.95;;;1.75;;
48034;SDS011;33812;46.480;6.834;2023-02-28T01:34:36;11.90;;;2.22;;
48034;SDS011;33812;46.480;6.834;2023-02-28T01:38:39;8.57;;;2.08;;
48034;SDS011;33812;46.480;6.834;2023-02-28T01:42:41;6.15;;;1.77;;
48034;SDS011;33812;46.480;6.834;2023-02-28T01:46:43;9.63;;;2.28;;
48034;SDS011;33812;46.480;6.834;2023-02-28T01:50:45;5.50;;;1.67;;
48034;SDS011;33812;46.480;6.834;2023-02-28T01:54:52;6.40;;;1.70;;
48034;SDS011;33812;46.480;6.834;2023-02-28T01:58:57;8.27;;;2.00;;
48034;SDS011;33812;46.480;6.834;2023-02-28T02:03:04;8.93;;;2.08;;
48034;SDS011;33812;46.480;6.834;2023-02-28T02:07:08;13.57;;;2.70;;
48034;SDS011;33812;46.480;6.834;2023-02-28T02:11:12;20.75;;;3.58;;
48034;SDS011;33812;46.480;6.834;2023-02-28T02:15:19;8.93;;;2.00;;
48034;SDS011;33812;46.480;6.834;2023-02-28T02:19:32;3.97;;;1.45;;
48034;SDS011;33812;46.480;6.834;2023-02-28T02:28:59;8.57;;;2.08;;
48034;SDS011;33812;46.480;6.834;2023-02-28T02:37:51;8.82;;;2.17;;
48034;SDS011;33812;46.480;6.834;2023-02-28T02:41:57;10.05;;;2.50;;
48034;SDS011;33812;46.480;6.834;2023-02-28T02:46:04;8.15;;;1.88;;
48034;SDS011;33812;46.480;6.834;2023-02-28T02:50:12;8.93;;;2.75;;
48034;SDS011;33812;46.480;6.834;2023-02-28T02:54:21;12.00;;;2.53;;
48034;SDS011;33812;46.480;6.834;2023-02-28T02:58:29;13.00;;;2.58;;
48034;SDS011;33812;46.480;6.834;2023-02-28T03:02:35;5.78;;;1.70;;
48034;SDS011;33812;46.480;6.834;2023-02-28T03:06:39;11.18;;;2.00;;
48034;SDS011;33812;46.480;6.834;2023-02-28T03:10:43;10.30;;;2.20;;
48034;SDS011;33812;46.480;6.834;2023-02-28T03:14:52;7.35;;;1.75;;
48034;SDS011;33812;46.480;6.834;2023-02-28T03:19:02;9.13;;;2.13;;
48034;SDS011;33812;46.480;6.834;2023-02-28T03:27:23;9.73;;;2.55;;
48034;SDS011;33812;46.480;6.834;2023-02-28T03:31:30;14.93;;;3.05;;
48034;SDS011;33812;46.480;6.834;2023-02-28T03:35:38;9.35;;;2.28;;
48034;SDS011;33812;46.480;6.834;2023-02-28T03:39:46;11.50;;;2.45;;
48034;SDS011;33812;46.480;6.834;2023-02-28T03:43:55;8.35;;;2.00;;
48034;SDS011;33812;46.480;6.834;2023-02-28T03:48:02;11.48;;;2.40;;
48034;SDS011;33812;46.480;6.834;2023-02-28T03:52:09;7.32;;;1.85;;
48034;SDS011;33812;46.480;6.834;2023-02-28T03:56:13;9.48;;;2.03;;
48034;SDS011;33812;46.480;6.834;2023-02-28T04:00:21;10.30;;;2.33;;
48034;SDS011;33812;46.480;6.834;2023-02-28T04:04:29;8.70;;;2.25;;
48034;SDS011;33812;46.480;6.834;2023-02-28T04:08:31;9.30;;;2.17;;
48034;SDS011;33812;46.480;6.834;2023-02-28T04:12:33;7.50;;;1.75;;
48034;SDS011;33812;46.480;6.834;2023-02-28T04:16:36;12.68;;;2.67;;
48034;SDS011;33812;46.480;6.834;2023-02-28T04:20:42;6.68;;;1.77;;
48034;SDS011;33812;46.480;6.834;2023-02-28T04:24:44;6.00;;;1.60;;
48034;SDS011;33812;46.480;6.834;2023-02-28T04:28:45;6.28;;;1.73;;
48034;SDS011;33812;46.480;6.834;2023-02-28T04:32:49;5.10;;;1.38;;
48034;SDS011;33812;46.480;6.834;2023-02-28T04:36:50;9.35;;;2.33;;
48034;SDS011;33812;46.480;6.834;2023-02-28T04:40:56;7.07;;;2.10;;
48034;SDS011;33812;46.480;6.834;2023-02-28T04:44:58;14.40;;;2.90;;
48034;SDS011;33812;46.480;6.834;2023-02-28T04:49:01;18.70;;;3.60;;
48034;SDS011;33812;46.480;6.834;2023-02-28T04:53:03;5.15;;;1.48;;
48034;SDS011;33812;46.480;6.834;2023-02-28T04:57:05;6.78;;;1.77;;
48034;SDS011;33812;46.480;6.834;2023-02-28T05:01:13;7.30;;;1.88;;
48034;SDS011;33812;46.480;6.834;2023-02-28T05:05:20;3.22;;;1.20;;
48034;SDS011;33812;46.480;6.834;2023-02-28T05:09:22;1.98;;;1.00;;
48034;SDS011;33812;46.480;6.834;2023-02-28T05:13:23;18.35;;;3.40;;
48034;SDS011;33812;46.480;6.834;2023-02-28T05:17:26;6.72;;;1.75;;
48034;SDS011;33812;46.480;6.834;2023-02-28T05:21:30;6.28;;;1.90;;
48034;SDS011;33812;46.480;6.834;2023-02-28T05:29:35;4.35;;;1.35;;
48034;SDS011;33812;46.480;6.834;2023-02-28T05:33:41;10.00;;;2.15;;
48034;SDS011;33812;46.480;6.834;2023-02-28T05:37:44;11.43;;;2.90;;
48034;SDS011;33812;46.480;6.834;2023-02-28T05:41:46;13.57;;;2.78;;
48034;SDS011;33812;46.480;6.834;2023-02-28T05:45:48;6.85;;;1.58;;
48034;SDS011;33812;46.480;6.834;2023-02-28T05:49:51;5.50;;;1.65;;
48034;SDS011;33812;46.480;6.834;2023-02-28T05:53:54;11.13;;;1.90;;
48034;SDS011;33812;46.480;6.834;2023-02-28T05:57:57;8.48;;;1.60;;
48034;SDS011;33812;46.480;6.834;2023-02-28T06:01:58;10.95;;;2.28;;
48034;SDS011;33812;46.480;6.834;2023-02-28T06:06:01;9.40;;;1.83;;
48034;SDS011;33812;46.480;6.834;2023-02-28T06:10:06;8.02;;;1.58;;
48034;SDS011;33812;46.480;6.834;2023-02-28T06:14:12;10.35;;;1.77;;
48034;SDS011;33812;46.480;6.834;2023-02-28T06:18:16;8.18;;;1.75;;
48034;SDS011;33812;46.480;6.834;2023-02-28T06:22:17;14.05;;;2.20;;
48034;SDS011;33812;46.480;6.834;2023-02-28T06:26:22;4.35;;;1.45;;
48034;SDS011;33812;46.480;6.834;2023-02-28T06:30:23;7.20;;;2.15;;
48034;SDS011;33812;46.480;6.834;2023-02-28T06:34:26;10.23;;;2.88;;
48034;SDS011;33812;46.480;6.834;2023-02-28T06:38:28;6.60;;;1.63;;
48034;SDS011;33812;46.480;6.834;2023-02-28T06:42:32;5.00;;;1.75;;
48034;SDS011;33812;46.480;6.834;2023-02-28T06:46:34;6.20;;;1.60;;
48034;SDS011;33812;46.480;6.834;2023-02-28T06:50:36;11.43;;;2.28;;
48034;SDS011;33812;46.480;6.834;2023-02-28T06:54:38;14.43;;;2.08;;
48034;SDS011;33812;46.480;6.834;2023-02-28T06:58:41;5.97;;;1.52;;
48034;SDS011;33812;46.480;6.834;2023-02-28T07:02:46;8.20;;;1.98;;
48034;SDS011;33812;46.480;6.834;2023-02-28T07:06:48;6.88;;;1.95;;
48034;SDS011;33812;46.480;6.834;2023-02-28T07:10:56;4.68;;;1.10;;
48034;SDS011;33812;46.480;6.834;2023-02-28T07:15:00;3.47;;;1.30;;
48034;SDS011;33812;46.480;6.834;2023-02-28T07:19:03;9.50;;;1.50;;
48034;SDS011;33812;46.480;6.834;2023-02-28T07:23:05;3.70;;;1.25;;
48034;SDS011;33812;46.480;6.834;2023-02-28T07:27:08;15.60;;;2.35;;
48034;SDS011;33812;46.480;6.834;2023-02-28T07:31:13;5.85;;;1.60;;
48034;SDS011;33812;46.480;6.834;2023-02-28T07:35:16;4.97;;;1.50;;
48034;SDS011;33812;46.480;6.834;2023-02-28T07:39:19;4.38;;;1.60;;
48034;SDS011;33812;46.480;6.834;2023-02-28T07:43:22;13.65;;;2.08;;
48034;SDS011;33812;46.480;6.834;2023-02-28T07:47:25;21.52;;;3.90;;
48034;SDS011;33812;46.480;6.834;2023-02-28T07:51:27;7.30;;;1.95;;
48034;SDS011;33812;46.480;6.834;2023-02-28T07:55:29;10.77;;;1.88;;
48034;SDS011;33812;46.480;6.834;2023-02-28T07:59:31;6.75;;;1.60;;
48034;SDS011;33812;46.480;6.834;2023-02-28T08:03:34;8.13;;;1.48;;
48034;SDS011;33812;46.480;6.834;2023-02-28T08:07:40;4.50;;;1.40;;
48034;SDS011;33812;46.480;6.834;2023-02-28T08:11:41;6.57;;;1.77;;
48034;SDS011;33812;46.480;6.834;2023-02-28T08:15:43;8.35;;;2.10;;
48034;SDS011;33812;46.480;6.834;2023-02-28T08:19:47;10.07;;;2.35;;
48034;SDS011;33812;46.480;6.834;2023-02-28T08:23:51;17.30;;;2.75;;
48034;SDS011;33812;46.480;6.834;2023-02-28T08:27:55;32.87;;;3.37;;
48034;SDS011;33812;46.480;6.834;2023-02-28T08:31:57;13.32;;;3.72;;
48034;SDS011;33812;46.480;6.834;2023-02-28T08:36:02;25.73;;;4.18;;
48034;SDS011;33812;46.480;6.834;2023-02-28T08:40:05;26.85;;;6.20;;
48034;SDS011;33812;46.480;6.834;2023-02-28T08:44:08;20.10;;;6.13;;
48034;SDS011;33812;46.480;6.834;2023-02-28T08:48:10;18.17;;;4.43;;
48034;SDS011;33812;46.480;6.834;2023-02-28T08:52:15;13.18;;;4.78;;
48034;SDS011;33812;46.480;6.834;2023-02-28T08:56:17;7.63;;;3.63;;
48034;SDS011;33812;46.480;6.834;2023-02-28T09:00:20;18.27;;;4.45;;
48034;SDS011;33812;46.480;6.834;2023-02-28T09:04:23;7.38;;;3.20;;
48034;SDS011;33812;46.480;6.834;2023-02-28T09:08:27;8.73;;;3.85;;
48034;SDS011;33812;46.480;6.834;2023-02-28T09:12:32;16.88;;;4.65;;
48034;SDS011;33812;46.480;6.834;2023-02-28T09:16:44;11.82;;;4.18;;
48034;SDS011;33812;46.480;6.834;2023-02-28T09:20:48;11.98;;;3.45;;
48034;SDS011;33812;46.480;6.834;2023-02-28T09:24:51;27.77;;;7.10;;
48034;SDS011;33812;46.480;6.834;2023-02-28T09:28:54;14.70;;;4.03;;
48034;SDS011;33812;46.480;6.834;2023-02-28T09:32:56;23.05;;;3.53;;
48034;SDS011;33812;46.480;6.834;2023-02-28T09:36:58;22.95;;;4.32;;
48034;SDS011;33812;46.480;6.834;2023-02-28T09:41:01;12.32;;;3.83;;
48034;SDS011;33812;46.480;6.834;2023-02-28T09:45:13;10.45;;;3.50;;
48034;SDS011;33812;46.480;6.834;2023-02-28T09:49:23;12.05;;;3.08;;
48034;SDS011;33812;46.480;6.834;2023-02-28T09:53:31;10.60;;;3.55;;
48034;SDS011;33812;46.480;6.834;2023-02-28T09:57:36;12.57;;;3.20;;
48034;SDS011;33812;46.480;6.834;2023-02-28T10:01:43;14.32;;;3.75;;
48034;SDS011;33812;46.480;6.834;2023-02-28T10:05:56;11.88;;;3.15;;
48034;SDS011;33812;46.480;6.834;2023-02-28T10:10:06;17.35;;;3.92;;
48034;SDS011;33812;46.480;6.834;2023-02-28T10:14:22;8.73;;;2.75;;
48034;SDS011;33812;46.480;6.834;2023-02-28T10:18:38;21.65;;;4.22;;
48034;SDS011;33812;46.480;6.834;2023-02-28T10:22:50;12.63;;;3.67;;
48034;SDS011;33812;46.480;6.834;2023-02-28T10:26:56;8.02;;;3.03;;
48034;SDS011;33812;46.480;6.834;2023-02-28T10:31:05;8.65;;;2.95;;
48034;SDS011;33812;46.480;6.834;2023-02-28T10:35:20;8.35;;;2.50;;
48034;SDS011;33812;46.480;6.834;2023-02-28T10:39:36;16.75;;;3.63;;
48034;SDS011;33812;46.480;6.834;2023-02-28T10:43:40;3.80;;;2.17;;
48034;SDS011;33812;46.480;6.834;2023-02-28T10:47:53;9.45;;;2.92;;
48034;SDS011;33812;46.480;6.834;2023-02-28T10:51:57;9.07;;;2.92;;
48034;SDS011;33812;46.480;6.834;2023-02-28T10:56:02;8.23;;;2.70;;
48034;SDS011;33812;46.480;6.834;2023-02-28T11:00:11;5.85;;;2.15;;
48034;SDS011;33812;46.480;6.834;2023-02-28T11:04:18;7.93;;;2.58;;
48034;SDS011;33812;46.480;6.834;2023-02-28T11:08:32;8.70;;;2.72;;
48034;SDS011;33812;46.480;6.834;2023-02-28T11:12:36;12.07;;;3.10;;
48034;SDS011;33812;46.480;6.834;2023-02-28T11:16:41;6.72;;;2.40;;
48034;SDS011;33812;46.480;6.834;2023-02-28T11:20:46;10.63;;;2.45;;
48034;SDS011;33812;46.480;6.834;2023-02-28T11:24:52;12.10;;;3.40;;
48034;SDS011;33812;46.480;6.834;2023-02-28T11:29:03;6.68;;;2.55;;
48034;SDS011;33812;46.480;6.834;2023-02-28T11:37:42;5.53;;;2.08;;
48034;SDS011;33812;46.480;6.834;2023-02-28T11:41:52;8.68;;;2.67;;
48034;SDS011;33812;46.480;6.834;2023-02-28T11:46:06;5.70;;;2.10;;
48034;SDS011;33812;46.480;6.834;2023-02-28T11:50:26;3.03;;;1.80;;
48034;SDS011;33812;46.480;6.834;2023-02-28T11:54:54;8.40;;;2.35;;
48034;SDS011;33812;46.480;6.834;2023-02-28T11:59:20;5.32;;;2.03;;
48034;SDS011;33812;46.480;6.834;2023-02-28T12:03:34;7.40;;;2.05;;
48034;SDS011;33812;46.480;6.834;2023-02-28T12:07:47;5.13;;;1.80;;
48034;SDS011;33812;46.480;6.834;2023-02-28T12:11:59;6.25;;;2.17;;
48034;SDS011;33812;46.480;6.834;2023-02-28T12:20:33;4.05;;;1.60;;
48034;SDS011;33812;46.480;6.834;2023-02-28T12:24:50;7.32;;;2.10;;
48034;SDS011;33812;46.480;6.834;2023-02-28T12:29:09;13.65;;;2.60;;
48034;SDS011;33812;46.480;6.834;2023-02-28T12:33:16;19.60;;;4.35;;
48034;SDS011;33812;46.480;6.834;2023-02-28T12:37:24;5.80;;;1.77;;
48034;SDS011;33812;46.480;6.834;2023-02-28T12:41:33;7.57;;;2.25;;
48034;SDS011;33812;46.480;6.834;2023-02-28T12:45:42;1.77;;;1.20;;
48034;SDS011;33812;46.480;6.834;2023-02-28T12:49:49;5.95;;;1.98;;
48034;SDS011;33812;46.480;6.834;2023-02-28T12:54:00;13.40;;;3.03;;
48034;SDS011;33812;46.480;6.834;2023-02-28T12:58:12;4.55;;;1.83;;
48034;SDS011;33812;46.480;6.834;2023-02-28T13:02:31;11.02;;;2.40;;
48034;SDS011;33812;46.480;6.834;2023-02-28T13:07:00;11.20;;;2.28;;
48034;SDS011;33812;46.480;6.834;2023-02-28T13:11:24;18.88;;;5.22;;
48034;SDS011;33812;46.480;6.834;2023-02-28T13:15:29;5.60;;;2.30;;
48034;SDS011;33812;46.480;6.834;2023-02-28T13:19:36;10.05;;;2.80;;
48034;SDS011;33812;46.480;6.834;2023-02-28T13:23:55;5.72;;;2.00;;
48034;SDS011;33812;46.480;6.834;2023-02-28T13:28:02;19.55;;;2.03;;
48034;SDS011;33812;46.480;6.834;2023-02-28T13:32:29;21.65;;;3.97;;
48034;SDS011;33812;46.480;6.834;2023-02-28T13:36:38;13.57;;;2.65;;
48034;SDS011;33812;46.480;6.834;2023-02-28T13:40:39;23.77;;;4.20;;
48034;SDS011;33812;46.480;6.834;2023-02-28T13:49:18;15.35;;;2.92;;
48034;SDS011;33812;46.480;6.834;2023-02-28T13:58:16;10.60;;;2.35;;
48034;SDS011;33812;46.480;6.834;2023-02-28T14:02:53;7.47;;;1.85;;
48034;SDS011;33812;46.480;6.834;2023-02-28T14:07:09;4.15;;;1.65;;
48034;SDS011;33812;46.480;6.834;2023-02-28T14:11:28;4.25;;;1.45;;
48034;SDS011;33812;46.480;6.834;2023-02-28T14:15:47;12.75;;;2.35;;
48034;SDS011;33812;46.480;6.834;2023-02-28T14:19:56;4.55;;;1.88;;
48034;SDS011;33812;46.480;6.834;2023-02-28T14:24:17;5.63;;;2.05;;
48034;SDS011;33812;46.480;6.834;2023-02-28T14:28:36;3.80;;;1.55;;
48034;SDS011;33812;46.480;6.834;2023-02-28T14:32:49;4.43;;;1.80;;
48034;SDS011;33812;46.480;6.834;2023-02-28T14:37:01;8.25;;;2.10;;
48034;SDS011;33812;46.480;6.834;2023-02-28T14:41:04;17.35;;;3.45;;
48034;SDS011;33812;46.480;6.834;2023-02-28T14:45:19;3.95;;;1.80;;
48034;SDS011;33812;46.480;6.834;2023-02-28T14:49:24;7.72;;;1.83;;
48034;SDS011;33812;46.480;6.834;2023-02-28T14:53:29;3.85;;;1.48;;
48034;SDS011;33812;46.480;6.834;2023-02-28T14:57:39;4.38;;;1.83;;
48034;SDS011;33812;46.480;6.834;2023-02-28T15:01:45;5.97;;;1.77;;
48034;SDS011;33812;46.480;6.834;2023-02-28T15:05:54;8.13;;;2.25;;
48034;SDS011;33812;46.480;6.834;2023-02-28T15:10:07;8.30;;;2.55;;
48034;SDS011;33812;46.480;6.834;2023-02-28T15:14:15;7.05;;;1.98;;
48034;SDS011;33812;46.480;6.834;2023-02-28T15:18:26;1.88;;;1.40;;
48034;SDS011;33812;46.480;6.834;2023-02-28T15:22:35;3.47;;;1.40;;
48034;SDS011;33812;46.480;6.834;2023-02-28T15:26:39;3.05;;;1.60;;
48034;SDS011;33812;46.480;6.834;2023-02-28T15:30:54;3.53;;;1.25;;
48034;SDS011;33812;46.480;6.834;2023-02-28T15:35:17;8.45;;;2.55;;
48034;SDS011;33812;46.480;6.834;2023-02-28T15:39:21;3.03;;;1.45;;
48034;SDS011;33812;46.480;6.834;2023-02-28T15:43:25;3.70;;;1.38;;
48034;SDS011;33812;46.480;6.834;2023-02-28T15:47:28;7.18;;;1.90;;
48034;SDS011;33812;46.480;6.834;2023-02-28T15:51:33;5.97;;;1.73;;
48034;SDS011;33812;46.480;6.834;2023-02-28T15:55:38;6.97;;;2.50;;
48034;SDS011;33812;46.480;6.834;2023-02-28T15:59:42;11.10;;;2.85;;
48034;SDS011;33812;46.480;6.834;2023-02-28T16:03:51;7.40;;;2.30;;
48034;SDS011;33812;46.480;6.834;2023-02-28T16:07:56;5.60;;;1.60;;
48034;SDS011;33812;46.480;6.834;2023-02-28T16:12:00;4.65;;;1.70;;
48034;SDS011;33812;46.480;6.834;2023-02-28T16:16:03;4.90;;;1.90;;
48034;SDS011;33812;46.480;6.834;2023-02-28T16:20:11;6.55;;;2.10;;
48034;SDS011;33812;46.480;6.834;2023-02-28T16:24:16;21.95;;;4.60;;
48034;SDS011;33812;46.480;6.834;2023-02-28T16:28:19;8.05;;;1.88;;
48034;SDS011;33812;46.480;6.834;2023-02-28T16:32:22;3.83;;;1.90;;
48034;SDS011;33812;46.480;6.834;2023-02-28T16:36:24;3.90;;;1.58;;
48034;SDS011;33812;46.480;6.834;2023-02-28T16:40:27;9.13;;;2.72;;
48034;SDS011;33812;46.480;6.834;2023-02-28T16:44:35;4.45;;;1.75;;
48034;SDS011;33812;46.480;6.834;2023-02-28T16:48:37;6.70;;;2.35;;
48034;SDS011;33812;46.480;6.834;2023-02-28T16:52:39;5.53;;;2.10;;
48034;SDS011;33812;46.480;6.834;2023-02-28T16:56:43;9.60;;;1.92;;
48034;SDS011;33812;46.480;6.834;2023-02-28T17:00:46;6.47;;;2.42;;
48034;SDS011;33812;46.480;6.834;2023-02-28T17:04:48;12.60;;;2.50;;
48034;SDS011;33812;46.480;6.834;2023-02-28T17:08:50;3.75;;;1.75;;
48034;SDS011;33812;46.480;6.834;2023-02-28T17:12:53;13.07;;;2.15;;
48034;SDS011;33812;46.480;6.834;2023-02-28T17:16:55;7.95;;;2.47;;
48034;SDS011;33812;46.480;6.834;2023-02-28T17:20:57;12.98;;;2.83;;
48034;SDS011;33812;46.480;6.834;2023-02-28T17:24:58;11.52;;;2.60;;
48034;SDS011;33812;46.480;6.834;2023-02-28T17:29:02;21.30;;;4.32;;
48034;SDS011;33812;46.480;6.834;2023-02-28T17:33:03;21.17;;;3.45;;
48034;SDS011;33812;46.480;6.834;2023-02-28T17:37:05;14.05;;;2.33;;
48034;SDS011;33812;46.480;6.834;2023-02-28T17:41:09;12.55;;;2.25;;
48034;SDS011;33812;46.480;6.834;2023-02-28T17:45:13;12.38;;;2.25;;
48034;SDS011;33812;46.480;6.834;2023-02-28T17:49:16;14.38;;;3.45;;
48034;SDS011;33812;46.480;6.834;2023-02-28T17:53:18;6.47;;;2.33;;
48034;SDS011;33812;46.480;6.834;2023-02-28T17:57:23;10.35;;;2.60;;
48034;SDS011;33812;46.480;6.834;2023-02-28T18:01:26;9.70;;;2.10;;
48034;SDS011;33812;46.480;6.834;2023-02-28T18:05:28;5.85;;;1.83;;
48034;SDS011;33812;46.480;6.834;2023-02-28T18:09:31;16.13;;;3.15;;
48034;SDS011;33812;46.480;6.834;2023-02-28T18:13:32;13.70;;;2.45;;
48034;SDS011;33812;46.480;6.834;2023-02-28T18:17:36;5.13;;;1.83;;
48034;SDS011;33812;46.480;6.834;2023-02-28T18:21:37;3.45;;;1.60;;
48034;SDS011;33812;46.480;6.834;2023-02-28T18:25:39;10.35;;;2.83;;
48034;SDS011;33812;46.480;6.834;2023-02-28T18:29:41;13.65;;;2.33;;
48034;SDS011;33812;46.480;6.834;2023-02-28T18:33:46;7.88;;;2.78;;
48034;SDS011;33812;46.480;6.834;2023-02-28T18:37:49;12.60;;;3.60;;
48034;SDS011;33812;46.480;6.834;2023-02-28T18:41:51;16.33;;;3.50;;
48034;SDS011;33812;46.480;6.834;2023-02-28T18:45:53;21.98;;;7.55;;
48034;SDS011;33812;46.480;6.834;2023-02-28T18:49:58;25.77;;;6.82;;
48034;SDS011;33812;46.480;6.834;2023-02-28T18:54:00;28.48;;;7.63;;
48034;SDS011;33812;46.480;6.834;2023-02-28T18:58:03;29.10;;;6.68;;
48034;SDS011;33812;46.480;6.834;2023-02-28T19:02:05;24.95;;;6.13;;
48034;SDS011;33812;46.480;6.834;2023-02-28T19:06:08;24.50;;;5.93;;
48034;SDS011;33812;46.480;6.834;2023-02-28T19:10:11;21.25;;;5.47;;
48034;SDS011;33812;46.480;6.834;2023-02-28T19:14:13;18.20;;;5.90;;
48034;SDS011;33812;46.480;6.834;2023-02-28T19:18:16;18.38;;;4.30;;
48034;SDS011;33812;46.480;6.834;2023-02-28T19:22:19;12.80;;;4.60;;
48034;SDS011;33812;46.480;6.834;2023-02-28T19:26:22;15.40;;;4.38;;
48034;SDS011;33812;46.480;6.834;2023-02-28T19:30:25;17.08;;;4.97;;
48034;SDS011;33812;46.480;6.834;2023-02-28T19:34:26;13.48;;;4.82;;
48034;SDS011;33812;46.480;6.834;2023-02-28T19:38:30;11.55;;;3.75;;
48034;SDS011;33812;46.480;6.834;2023-02-28T19:42:32;15.43;;;4.38;;
48034;SDS011;33812;46.480;6.834;2023-02-28T19:46:35;14.48;;;3.92;;
48034;SDS011;33812;46.480;6.834;2023-02-28T19:50:37;8.93;;;3.45;;
48034;SDS011;33812;46.480;6.834;2023-02-28T19:54:41;20.90;;;5.25;;
48034;SDS011;33812;46.480;6.834;2023-02-28T19:58:43;11.27;;;4.10;;
48034;SDS011;33812;46.480;6.834;2023-02-28T20:02:45;14.35;;;3.78;;
48034;SDS011;33812;46.480;6.834;2023-02-28T20:06:47;17.98;;;4.75;;
48034;SDS011;33812;46.480;6.834;2023-02-28T20:10:50;13.82;;;3.78;;
48034;SDS011;33812;46.480;6.834;2023-02-28T20:14:54;19.67;;;4.53;;
48034;SDS011;33812;46.480;6.834;2023-02-28T20:18:56;18.38;;;3.30;;
48034;SDS011;33812;46.480;6.834;2023-02-28T20:22:57;25.17;;;4.13;;
48034;SDS011;33812;46.480;6.834;2023-02-28T20:27:01;19.95;;;4.07;;
48034;SDS011;33812;46.480;6.834;2023-02-28T20:31:13;12.98;;;3.33;;
48034;SDS011;33812;46.480;6.834;2023-02-28T20:35:17;8.15;;;3.17;;
48034;SDS011;33812;46.480;6.834;2023-02-28T20:39:20;8.85;;;3.47;;
48034;SDS011;33812;46.480;6.834;2023-02-28T20:43:24;14.07;;;3.63;;
48034;SDS011;33812;46.480;6.834;2023-02-28T20:47:28;11.15;;;3.25;;
48034;SDS011;33812;46.480;6.834;2023-02-28T20:51:31;9.45;;;3.00;;
48034;SDS011;33812;46.480;6.834;2023-02-28T20:55:32;14.70;;;4.32;;
48034;SDS011;33812;46.480;6.834;2023-02-28T20:59:36;8.05;;;2.75;;
48034;SDS011;33812;46.480;6.834;2023-02-28T21:03:38;12.55;;;3.33;;
48034;SDS011;33812;46.480;6.834;2023-02-28T21:07:40;13.60;;;3.22;;
48034;SDS011;33812;46.480;6.834;2023-02-28T21:11:44;5.75;;;2.58;;
48034;SDS011;33812;46.480;6.834;2023-02-28T21:15:47;7.40;;;2.90;;
48034;SDS011;33812;46.480;6.834;2023-02-28T21:19:49;7.28;;;2.40;;
48034;SDS011;33812;46.480;6.834;2023-02-28T21:23:51;11.52;;;2.70;;
48034;SDS011;33812;46.480;6.834;2023-02-28T21:27:53;16.10;;;3.60;;
48034;SDS011;33812;46.480;6.834;2023-02-28T21:31:57;10.60;;;2.90;;
48034;SDS011;33812;46.480;6.834;2023-02-28T21:36:00;9.82;;;2.83;;
48034;SDS011;33812;46.480;6.834;2023-02-28T21:40:03;12.43;;;3.53;;
48034;SDS011;33812;46.480;6.834;2023-02-28T21:44:08;17.77;;;3.87;;
48034;SDS011;33812;46.480;6.834;2023-02-28T21:48:18;10.70;;;3.00;;
48034;SDS011;33812;46.480;6.834;2023-02-28T21:52:20;18.25;;;4.57;;
48034;SDS011;33812;46.480;6.834;2023-02-28T21:56:24;15.45;;;3.00;;
48034;SDS011;33812;46.480;6.834;2023-02-28T22:00:27;5.80;;;2.75;;
48034;SDS011;33812;46.480;6.834;2023-02-28T22:04:32;11.35;;;2.60;;
48034;SDS011;33812;46.480;6.834;2023-02-28T22:08:34;9.43;;;2.40;;
48034;SDS011;33812;46.480;6.834;2023-02-28T22:12:36;8.32;;;2.45;;
48034;SDS011;33812;46.480;6.834;2023-02-28T22:16:37;7.53;;;2.75;;
48034;SDS011;33812;46.480;6.834;2023-02-28T22:20:41;9.63;;;3.00;;
48034;SDS011;33812;46.480;6.834;2023-02-28T22:24:43;9.50;;;2.92;;
48034;SDS011;33812;46.480;6.834;2023-02-28T22:28:44;11.82;;;3.25;;
48034;SDS011;33812;46.480;6.834;2023-02-28T22:32:47;10.25;;;3.00;;
48034;SDS011;33812;46.480;6.834;2023-02-28T22:36:50;7.68;;;2.90;;
48034;SDS011;33812;46.480;6.834;2023-02-28T22:40:54;7.65;;;2.88;;
48034;SDS011;33812;46.480;6.834;2023-02-28T22:48:58;13.95;;;3.88;;
48034;SDS011;33812;46.480;6.834;2023-02-28T22:53:02;10.60;;;3.42;;
48034;SDS011;33812;46.480;6.834;2023-02-28T22:57:04;12.02;;;3.53;;
48034;SDS011;33812;46.480;6.834;2023-02-28T23:01:06;11.27;;;3.22;;
48034;SDS011;33812;46.480;6.834;2023-02-28T23:05:11;10.15;;;3.33;;
48034;SDS011;33812;46.480;6.834;2023-02-28T23:09:15;7.23;;;2.83;;
48034;SDS011;33812;46.480;6.834;2023-02-28T23:13:18;14.25;;;3.13;;
48034;SDS011;33812;46.480;6.834;2023-02-28T23:17:21;9.43;;;2.97;;
48034;SDS011;33812;46.480;6.834;2023-02-28T23:21:23;11.00;;;3.28;;
48034;SDS011;33812;46.480;6.834;2023-02-28T23:25:28;14.55;;;4.13;;
48034;SDS011;33812;46.480;6.834;2023-02-28T23:29:30;9.47;;;3.10;;
48034;SDS011;33812;46.480;6.834;2023-02-28T23:33:33;9.57;;;3.00;;
48034;SDS011;33812;46.480;6.834;2023-02-28T23:37:35;11.23;;;3.20;;
48034;SDS011;33812;46.480;6.834;2023-02-28T23:41:39;11.55;;;3.05;;
48034;SDS011;33812;46.480;6.834;2023-02-28T23:45:41;8.70;;;3.13;;
48034;SDS011;33812;46.480;6.834;2023-02-28T23:49:45;8.98;;;2.85;;
48034;SDS011;33812;46.480;6.834;2023-02-28T23:53:49;10.32;;;3.38;;
48034;SDS011;33812;46.480;6.834;2023-02-28T23:57:53;9.93;;;3.10;;
